createdAt,value
2018-12-15T16:08:21.434Z,24.30
2018-12-15T16:10:48.864Z,22.00
2018-12-15T16:13:16.288Z,25.07
2018-12-15T16:15:43.839Z,24.00
2018-12-15T16:18:11.313Z,25.10
2018-12-15T16:20:43.168Z,21.97
2018-12-15T16:23:08.391Z,24.40
2018-12-15T16:25:35.946Z,22.60
2018-12-15T16:28:03.439Z,24.40
2018-12-15T16:30:30.907Z,27.67
2018-12-15T16:32:58.425Z,22.40
2018-12-15T16:35:25.892Z,25.10
2018-12-15T16:37:53.406Z,20.63
2018-12-15T16:40:20.870Z,22.73
2018-12-15T16:42:48.333Z,25.27
2018-12-15T16:45:15.782Z,18.93
2018-12-15T16:47:43.224Z,23.30
2018-12-15T16:50:10.903Z,24.57
2018-12-15T16:52:38.698Z,22.73
2018-12-15T16:55:06.489Z,22.13
2018-12-15T16:57:33.920Z,21.97
2018-12-15T17:00:01.348Z,22.17
2018-12-15T17:02:28.914Z,22.00
2018-12-15T17:04:56.360Z,22.63
2018-12-15T17:07:23.806Z,26.37
2018-12-15T17:09:51.281Z,22.47
2018-12-15T17:12:18.780Z,22.77
2018-12-15T17:14:46.229Z,20.13
2018-12-15T17:17:13.942Z,22.03
2018-12-15T17:19:41.400Z,19.10
2018-12-15T17:22:08.963Z,21.20
2018-12-15T17:24:36.482Z,20.40
2018-12-15T17:27:03.972Z,20.73
2018-12-15T17:29:31.408Z,20.03
2018-12-15T17:31:58.873Z,18.73
2018-12-15T17:34:26.334Z,22.77
2018-12-15T17:36:53.796Z,20.70
2018-12-15T17:39:21.564Z,19.17
2018-12-15T17:41:49.022Z,18.13
2018-12-15T17:44:17.351Z,20.90
2018-12-15T17:46:45.108Z,20.77
2018-12-15T17:49:13.342Z,22.67
2018-12-15T17:51:41.003Z,22.70
2018-12-15T17:54:08.671Z,20.40
2018-12-15T17:56:36.471Z,20.00
2018-12-15T17:59:04.298Z,20.67
2018-12-15T18:01:31.767Z,24.53
2018-12-15T18:03:59.245Z,21.20
2018-12-15T18:06:26.718Z,22.50
2018-12-15T18:08:54.178Z,22.73
2018-12-15T18:11:21.626Z,21.50
2018-12-15T18:13:49.056Z,20.07
2018-12-15T18:16:16.632Z,22.03
2018-12-15T18:18:44.072Z,20.33
2018-12-15T18:21:11.654Z,19.40
2018-12-15T18:23:39.115Z,18.27
2018-12-15T18:26:06.570Z,18.03
2018-12-15T18:28:34.126Z,17.57
2018-12-15T18:31:01.616Z,19.07
2018-12-15T18:33:29.070Z,18.30
2018-12-15T18:35:56.533Z,21.60
2018-12-15T18:38:23.997Z,20.27
2018-12-15T18:40:51.477Z,19.57
2018-12-15T18:43:18.900Z,17.67
2018-12-15T18:45:46.385Z,19.63
2018-12-15T18:48:13.883Z,20.83
2018-12-15T18:50:41.328Z,16.50
2018-12-15T18:53:08.805Z,16.60
2018-12-15T18:55:36.266Z,17.13
2018-12-15T18:58:05.679Z,18.43
2018-12-15T19:00:33.192Z,17.63
2018-12-15T19:03:00.651Z,16.83
2018-12-15T19:05:28.091Z,17.30
2018-12-15T19:07:55.567Z,16.63
2018-12-15T19:10:23.458Z,14.83
2018-12-15T19:12:50.931Z,16.90
2018-12-15T19:15:18.497Z,14.93
2018-12-15T19:17:45.972Z,16.80
2018-12-15T19:20:13.671Z,19.87
2018-12-15T19:22:42.195Z,19.20
2018-12-15T19:25:09.677Z,15.23
2018-12-15T19:27:37.501Z,18.17
2018-12-15T19:30:06.383Z,18.47
2018-12-15T19:32:33.860Z,19.57
2018-12-15T19:35:01.292Z,16.20
2018-12-15T19:37:28.749Z,17.83
2018-12-15T19:39:56.391Z,15.57
2018-12-15T19:42:24.006Z,18.77
2018-12-15T19:44:51.675Z,19.53
2018-12-15T19:47:19.429Z,18.43
2018-12-15T19:49:46.863Z,18.20
2018-12-15T19:52:14.296Z,19.53
2018-12-15T19:54:41.782Z,18.60
2018-12-15T19:57:09.238Z,21.43
2018-12-15T19:59:36.663Z,20.97
2018-12-15T20:02:04.353Z,17.67
2018-12-15T20:04:31.822Z,21.73
2018-12-15T20:06:59.298Z,20.50
2018-12-15T20:09:26.749Z,20.63
2018-12-15T20:11:54.188Z,20.50
2018-12-15T20:14:21.624Z,20.90
2018-12-15T20:16:49.093Z,20.87
2018-12-15T20:19:16.547Z,19.40
2018-12-15T20:21:44.115Z,24.10
2018-12-15T20:24:11.577Z,21.87
2018-12-15T20:26:39.026Z,18.63
2018-12-15T20:29:06.502Z,20.60
2018-12-15T20:31:34.054Z,21.40
2018-12-15T20:34:01.550Z,20.63
2018-12-15T20:36:28.999Z,19.90
2018-12-15T20:38:56.466Z,21.27
2018-12-15T20:41:23.928Z,20.07
2018-12-15T20:43:51.388Z,23.07
2018-12-15T20:46:18.843Z,24.30
2018-12-15T20:48:46.314Z,23.70
2018-12-15T20:51:13.767Z,23.30
2018-12-15T20:53:41.228Z,22.37
2018-12-15T20:56:08.660Z,24.50
2018-12-15T20:58:36.132Z,23.17
2018-12-15T21:01:03.971Z,22.50
2018-12-15T21:03:31.412Z,24.30
2018-12-15T21:05:58.860Z,24.33
2018-12-15T21:08:26.323Z,21.93
2018-12-15T21:10:53.797Z,25.27
2018-12-15T21:13:21.227Z,22.23
2018-12-15T21:15:50.712Z,21.13
2018-12-15T21:18:18.190Z,21.57
2018-12-15T21:20:45.624Z,24.37
2018-12-15T21:23:13.089Z,23.50
2018-12-15T21:25:40.561Z,23.30
2018-12-15T21:28:08.150Z,22.57
2018-12-15T21:30:35.623Z,21.73
2018-12-15T21:33:03.123Z,28.00
2018-12-15T21:35:30.588Z,167.27
2018-12-15T21:37:58.063Z,175.43
2018-12-15T21:40:25.713Z,97.33
2018-12-15T21:42:53.921Z,71.67
2018-12-15T21:45:21.364Z,129.90
2018-12-15T21:47:48.825Z,65.93
2018-12-15T21:50:16.290Z,52.27
2018-12-15T21:52:44.327Z,44.80
2018-12-15T21:55:12.447Z,32.00
2018-12-15T21:57:40.289Z,29.97
2018-12-15T22:00:07.748Z,37.20
2018-12-15T22:02:35.237Z,28.00
2018-12-15T22:05:03.198Z,26.23
2018-12-15T22:07:30.652Z,25.57
2018-12-15T22:09:58.114Z,25.60
2018-12-15T22:12:25.582Z,27.13
2018-12-15T22:14:53.070Z,29.73
2018-12-15T22:17:20.488Z,26.90
2018-12-15T22:19:47.938Z,29.27
2018-12-15T22:22:15.421Z,29.37
2018-12-15T22:24:43.021Z,30.10
2018-12-15T22:27:10.563Z,26.37
2018-12-15T22:29:38.030Z,29.63
2018-12-15T22:32:05.531Z,28.20
2018-12-15T22:34:33.018Z,29.27
2018-12-15T22:37:00.560Z,26.57
2018-12-15T22:39:28.021Z,29.50
2018-12-15T22:41:55.473Z,30.13
